Time;durP1;ratioP1;P1;durP2;ratioP2;P2;SDS_P1;SDS_P2;PMS_P1;PMS_P2;Temp;Humidity;BMP_temperature;BMP_pressure;BME280_temperature;BME280_humidity;BME280_pressure;Samples;Min_cycle;Max_cycle;Signal;HPM_P1;HPM_P2
2021/01/01 00:00:47;;;;;;;5.78;1.95;;;1.60;99.90;;;;;;5031694;28;20044;-88
2021/01/01 00:03:13;;;;;;;15.77;8.30;;;1.50;99.90;;;;;;5031856;28;20042;-88
2021/01/01 00:05:40;;;;;;;1.45;1.05;;;1.50;99.90;;;;;;5048511;28;20037;-87
2021/01/01 00:08:06;;;;;;;2.75;2.60;;;1.50;99.90;;;;;;5031788;28;20030;-87
2021/01/01 00:10:36;;;;;;;0.00;0.00;;;1.50;99.90;;;;;;5031717;28;20252;-88
2021/01/01 00:13:02;;;;;;;2.05;1.95;;;1.40;99.90;;;;;;5032090;28;20052;-88
2021/01/01 00:15:27;;;;;;;2.15;2.05;;;1.40;99.90;;;;;;5031325;28;20037;-88
2021/01/01 00:17:53;;;;;;;2.08;1.98;;;1.40;99.90;;;;;;5047931;28;20045;-88
2021/01/01 00:20:18;;;;;;;5.32;5.03;;;1.30;99.90;;;;;;5031682;28;20048;-89
2021/01/01 00:22:44;;;;;;;4.63;4.15;;;1.30;99.90;;;;;;5031620;28;20061;-89
2021/01/01 00:25:10;;;;;;;1.27;1.27;;;1.30;99.90;;;;;;5031544;28;20041;-88
2021/01/01 00:27:37;;;;;;;2.00;1.90;;;1.20;99.90;;;;;;5031733;28;20065;-87
2021/01/01 00:30:05;;;;;;;1.65;1.65;;;1.20;99.90;;;;;;5031261;28;20065;-89
2021/01/01 00:32:32;;;;;;;3.08;2.95;;;1.20;99.90;;;;;;5031394;28;20041;-88
2021/01/01 00:34:57;;;;;;;0.00;0.00;;;1.10;99.90;;;;;;5031467;28;20044;-88
2021/01/01 00:37:23;;;;;;;3.47;3.22;;;1.10;99.90;;;;;;5031289;28;20042;-89
2021/01/01 00:39:49;;;;;;;3.47;3.28;;;1.00;99.90;;;;;;5031151;28;20041;-88
2021/01/01 00:42:14;;;;;;;10.73;10.00;;;1.00;99.90;;;;;;5030863;28;20045;-88
2021/01/01 00:44:41;;;;;;;0.73;0.73;;;1.00;99.90;;;;;;5026604;28;20044;-88
2021/01/01 00:47:12;;;;;;;0.77;0.77;;;1.00;99.90;;;;;;5031077;28;20105;-89
2021/01/01 00:49:38;;;;;;;8.40;7.70;;;0.90;99.90;;;;;;5014521;28;20187;-88
2021/01/01 00:52:07;;;;;;;1.55;1.55;;;0.90;99.90;;;;;;5030576;28;20056;-89
2021/01/01 00:54:35;;;;;;;4.25;2.40;;;0.80;99.90;;;;;;5030785;28;20044;-89
2021/01/01 00:57:01;;;;;;;2.22;2.17;;;0.90;99.90;;;;;;5032434;28;20379;-90
2021/01/01 00:59:28;;;;;;;4.07;3.83;;;0.80;99.90;;;;;;5030328;28;20072;-90
2021/01/01 01:01:55;;;;;;;33.45;19.60;;;0.80;99.90;;;;;;5047235;28;20042;-89
2021/01/01 01:04:20;;;;;;;5.20;4.78;;;0.80;99.90;;;;;;5047010;28;20207;-90
2021/01/01 01:06:46;;;;;;;5.90;5.47;;;0.70;99.90;;;;;;5014260;28;20288;-89
2021/01/01 01:09:12;;;;;;;2.70;2.58;;;0.70;99.90;;;;;;5013976;28;20048;-89
2021/01/01 01:11:37;;;;;;;0.82;0.82;;;0.70;99.90;;;;;;5013841;28;20049;-88
2021/01/01 01:14:03;;;;;;;0.00;0.00;;;0.70;99.90;;;;;;5013960;28;20064;-89
2021/01/01 01:16:30;;;;;;;7.60;6.88;;;0.70;99.90;;;;;;5014127;28;20041;-89
2021/01/01 01:18:57;;;;;;;0.93;0.93;;;0.70;99.90;;;;;;5013815;28;20041;-89
2021/01/01 01:21:24;;;;;;;4.95;2.88;;;0.70;99.90;;;;;;5013702;28;20049;-90
2021/01/01 01:23:50;;;;;;;9.73;5.25;;;0.70;99.90;;;;;;5013606;28;20033;-89
2021/01/01 01:26:16;;;;;;;4.72;4.32;;;0.60;99.90;;;;;;5030041;28;20040;-89
2021/01/01 01:28:41;;;;;;;1.55;1.55;;;0.60;99.90;;;;;;5013640;28;20127;-90
2021/01/01 01:31:07;;;;;;;2.30;2.20;;;0.60;99.90;;;;;;5053591;28;20133;-89
2021/01/01 01:33:34;;;;;;;0.45;0.45;;;0.60;99.90;;;;;;5028280;28;20172;-88
2021/01/01 01:36:00;;;;;;;1.90;1.85;;;0.50;99.90;;;;;;5045647;28;20060;-89
2021/01/01 01:38:26;;;;;;;25.80;13.43;;;0.50;99.90;;;;;;5046107;28;20068;-89
2021/01/01 01:40:53;;;;;;;2.28;2.22;;;0.40;99.90;;;;;;5029566;28;20042;-89
2021/01/01 01:43:20;;;;;;;6.78;6.15;;;0.40;99.90;;;;;;5046357;28;20076;-89
2021/01/01 01:45:45;;;;;;;7.78;7.03;;;0.40;99.90;;;;;;5047738;28;20041;-89
2021/01/01 01:48:14;;;;;;;10.45;5.03;;;0.30;99.90;;;;;;5046459;28;20052;-89
2021/01/01 01:50:40;;;;;;;7.60;6.28;;;0.30;99.90;;;;;;5047538;28;20049;-89
2021/01/01 01:53:06;;;;;;;42.83;6.55;;;0.40;99.90;;;;;;5046247;28;20084;-89
2021/01/01 01:55:32;;;;;;;4.10;3.13;;;0.30;99.90;;;;;;5049741;28;20053;-89
2021/01/01 01:57:58;;;;;;;0.65;0.65;;;0.30;99.90;;;;;;5052897;28;20047;-89
2021/01/01 02:02:53;;;;;;;6.25;5.70;;;0.20;99.90;;;;;;5069393;28;20037;-89
2021/01/01 02:05:19;;;;;;;10.63;8.93;;;0.20;99.90;;;;;;5052647;28;20044;-89
2021/01/01 02:07:45;;;;;;;1.48;1.38;;;0.20;99.90;;;;;;5052433;28;20127;-89
2021/01/01 02:10:12;;;;;;;1.65;0.85;;;0.20;99.90;;;;;;5052451;28;20098;-89
2021/01/01 02:12:38;;;;;;;10.07;6.75;;;0.10;99.90;;;;;;5052791;28;20079;-89
2021/01/01 02:15:05;;;;;;;8.20;7.72;;;0.10;99.90;;;;;;5052817;28;20036;-89
2021/01/01 02:17:30;;;;;;;13.35;5.35;;;0.10;99.90;;;;;;5052363;28;20037;-89
2021/01/01 02:20:10;;;;;;;5.85;5.43;;;0.10;99.90;;;;;;5052339;28;20036;-89
2021/01/01 02:22:36;;;;;;;6.85;6.32;;;0.00;99.90;;;;;;5052274;28;20041;-89
2021/01/01 02:25:04;;;;;;;1.80;1.75;;;0.00;99.90;;;;;;5052310;28;20040;-89
2021/01/01 02:27:29;;;;;;;3.00;2.83;;;0.00;99.90;;;;;;5052311;28;20036;-89
2021/01/01 02:29:55;;;;;;;4.63;4.25;;;0.00;99.90;;;;;;5052204;28;20048;-89
2021/01/01 02:32:21;;;;;;;4.03;3.70;;;0.00;99.90;;;;;;5068828;28;20039;-89
2021/01/01 02:34:46;;;;;;;2.95;2.75;;;-0.10;99.90;;;;;;5068818;28;20052;-89
2021/01/01 02:37:12;;;;;;;1.90;1.80;;;-0.10;99.90;;;;;;5068547;28;20510;-88
2021/01/01 02:39:37;;;;;;;10.77;5.25;;;-0.10;99.90;;;;;;5052304;28;20041;-88
2021/01/01 02:42:04;;;;;;;6.95;6.50;;;-0.10;99.90;;;;;;5068831;28;20040;-89
2021/01/01 02:44:30;;;;;;;1.80;1.38;;;-0.10;99.90;;;;;;5068628;28;20041;-89
2021/01/01 02:47:00;;;;;;;1.95;1.42;;;-0.10;99.90;;;;;;5068610;28;20040;-89
2021/01/01 02:49:26;;;;;;;5.28;4.45;;;-0.20;99.90;;;;;;5051754;28;20104;-88
2021/01/01 02:51:51;;;;;;;9.45;8.80;;;-0.20;99.90;;;;;;5068452;28;20049;-89
2021/01/01 02:54:17;;;;;;;3.45;3.35;;;-0.10;99.90;;;;;;5068677;28;20056;-89
2021/01/01 02:56:42;;;;;;;3.50;2.60;;;-0.10;99.90;;;;;;5068203;28;20057;-89
2021/01/01 02:59:08;;;;;;;5.50;5.20;;;-0.20;99.90;;;;;;5068415;28;20036;-89
2021/01/01 03:01:34;;;;;;;5.05;3.47;;;-0.10;99.90;;;;;;5051352;28;20103;-89
2021/01/01 03:03:59;;;;;;;0.50;0.50;;;-0.10;99.90;;;;;;5051736;28;20067;-89
2021/01/01 03:06:25;;;;;;;9.70;8.95;;;-0.10;99.90;;;;;;5067897;28;20032;-89
2021/01/01 03:08:50;;;;;;;6.10;5.68;;;-0.10;99.90;;;;;;5068125;28;20068;-89
2021/01/01 03:11:16;;;;;;;0.00;0.00;;;-0.10;99.90;;;;;;5051480;28;20059;-89
2021/01/01 03:13:42;;;;;;;2.72;2.58;;;0.00;99.90;;;;;;5051434;28;20056;-89
2021/01/01 03:16:07;;;;;;;19.27;7.88;;;0.10;99.90;;;;;;5067785;28;20116;-88
2021/01/01 03:18:33;;;;;;;0.63;0.63;;;0.00;99.90;;;;;;5051612;28;20039;-89
2021/01/01 03:20:58;;;;;;;2.28;2.22;;;-0.10;99.90;;;;;;5051668;28;20032;-88
2021/01/01 03:23:24;;;;;;;0.00;0.00;;;-0.10;99.90;;;;;;5051457;28;20033;-89
2021/01/01 03:25:49;;;;;;;4.35;2.08;;;0.10;99.90;;;;;;5051402;28;20047;-89
2021/01/01 03:28:15;;;;;;;8.70;4.15;;;0.10;99.90;;;;;;5067838;28;20036;-89
2021/01/01 03:30:41;;;;;;;0.00;0.00;;;0.00;99.90;;;;;;5067693;28;20140;-88
2021/01/01 03:33:07;;;;;;;8.20;5.20;;;0.00;99.90;;;;;;5068184;28;20075;-89
2021/01/01 03:35:34;;;;;;;0.00;0.00;;;0.00;99.90;;;;;;5086138;28;20033;-89
2021/01/01 03:38:00;;;;;;;0.00;0.00;;;0.10;99.90;;;;;;5067930;28;20495;-88
2021/01/01 03:40:26;;;;;;;0.00;0.00;;;0.10;99.90;;;;;;5067814;28;20040;-89
2021/01/01 03:42:51;;;;;;;0.00;0.00;;;0.10;99.90;;;;;;5051152;28;20055;-89
2021/01/01 03:45:17;;;;;;;0.47;0.47;;;0.10;99.90;;;;;;5067915;28;20044;-88
2021/01/01 03:47:43;;;;;;;0.00;0.00;;;0.10;99.90;;;;;;5067812;28;20090;-88
2021/01/01 03:50:09;;;;;;;7.38;6.82;;;0.20;99.90;;;;;;5067842;28;20060;-88
2021/01/01 03:52:35;;;;;;;0.00;0.00;;;0.30;99.90;;;;;;5051295;28;20124;-89
2021/01/01 03:55:00;;;;;;;1.88;1.80;;;0.40;99.90;;;;;;5071494;23;20049;-88
2021/01/01 03:57:26;;;;;;;3.95;1.75;;;0.50;99.90;;;;;;5048543;28;20037;-87
2021/01/01 03:59:51;;;;;;;0.00;0.00;;;0.30;99.90;;;;;;5048153;28;20039;-88
2021/01/01 04:02:17;;;;;;;0.20;0.20;;;0.40;99.90;;;;;;5064962;28;20048;-88
2021/01/01 04:04:43;;;;;;;4.75;4.55;;;0.40;99.90;;;;;;5047965;28;20067;-88
2021/01/01 04:07:08;;;;;;;1.50;1.50;;;0.40;99.90;;;;;;5064656;28;20041;-88
2021/01/01 04:09:34;;;;;;;5.47;5.22;;;0.30;99.90;;;;;;5031061;28;20095;-88
2021/01/01 04:11:59;;;;;;;0.20;0.20;;;0.50;99.90;;;;;;5064571;28;20083;-88
2021/01/01 04:14:25;;;;;;;0.00;0.00;;;0.50;99.90;;;;;;5047923;28;20044;-88
2021/01/01 04:16:51;;;;;;;0.10;0.10;;;0.50;99.90;;;;;;5048080;28;20079;-88
2021/01/01 04:19:16;;;;;;;1.02;0.93;;;0.60;99.90;;;;;;5067035;28;20037;-88
2021/01/01 04:21:49;;;;;;;3.30;2.92;;;0.60;99.90;;;;;;5051479;28;20040;-88
2021/01/01 04:24:18;;;;;;;0.00;0.00;;;0.60;99.90;;;;;;5051216;28;20037;-88
2021/01/01 04:26:45;;;;;;;0.00;0.00;;;0.40;99.90;;;;;;5035015;28;20101;-88
2021/01/01 04:29:11;;;;;;;4.00;3.78;;;0.50;99.90;;;;;;5034738;28;20167;-88
2021/01/01 04:31:37;;;;;;;0.05;0.05;;;0.40;99.90;;;;;;5051441;28;20041;-88
2021/01/01 04:34:07;;;;;;;0.00;0.00;;;0.30;99.90;;;;;;5068036;28;20107;-88
2021/01/01 04:36:33;;;;;;;0.00;0.00;;;0.30;99.90;;;;;;5051249;28;20056;-88
2021/01/01 04:38:59;;;;;;;1.75;1.75;;;0.40;99.90;;;;;;5050996;28;20044;-89
2021/01/01 04:41:25;;;;;;;0.10;0.10;;;0.50;99.90;;;;;;5051281;28;20112;-87
2021/01/01 04:43:51;;;;;;;2.22;2.05;;;0.60;99.90;;;;;;5050968;28;20095;-88
2021/01/01 04:46:19;;;;;;;3.28;3.00;;;0.60;99.90;;;;;;5067489;28;20044;-88
2021/01/01 04:48:46;;;;;;;10.15;9.57;;;0.60;99.90;;;;;;5051051;28;20121;-88
2021/01/01 04:51:12;;;;;;;0.00;0.00;;;0.60;99.90;;;;;;5050719;28;20060;-87
2021/01/01 04:53:39;;;;;;;0.00;0.00;;;0.50;99.90;;;;;;5034267;28;20051;-87
2021/01/01 04:56:06;;;;;;;0.00;0.00;;;0.40;99.90;;;;;;5063418;28;20052;-88
2021/01/01 04:58:33;;;;;;;2.38;2.28;;;0.40;99.90;;;;;;5070586;28;20102;-89
2021/01/01 05:00:58;;;;;;;0.00;0.00;;;0.40;99.90;;;;;;5070430;28;20028;-88
2021/01/01 05:03:24;;;;;;;2.17;2.08;;;0.40;99.90;;;;;;5070495;28;20034;-92
2021/01/01 05:05:52;;;;;;;0.00;0.00;;;0.40;99.90;;;;;;5070631;28;20044;-91
2021/01/01 05:08:19;;;;;;;0.30;0.30;;;0.60;99.90;;;;;;5086984;28;20037;-89
2021/01/01 05:10:45;;;;;;;0.00;0.00;;;0.60;99.90;;;;;;5070375;28;20044;-89
2021/01/01 05:13:19;;;;;;;0.00;0.00;;;0.40;99.90;;;;;;5070312;28;20039;-88
2021/01/01 05:15:47;;;;;;;0.00;0.00;;;0.30;99.90;;;;;;5070488;28;20163;-90
2021/01/01 05:18:17;;;;;;;1.13;1.13;;;0.30;99.90;;;;;;5069947;28;20037;-88
2021/01/01 05:20:44;;;;;;;0.00;0.00;;;0.20;99.90;;;;;;5070072;28;20044;-88
2021/01/01 05:23:27;;;;;;;0.00;0.00;;;0.10;99.90;;;;;;5070148;28;20059;-88
2021/01/01 05:26:13;;;;;;;0.00;0.00;;;0.10;99.90;;;;;;5070042;28;20125;-90
2021/01/01 05:28:47;;;;;;;1.40;1.40;;;0.10;99.90;;;;;;5069825;28;20079;-88
2021/01/01 05:31:14;;;;;;;0.10;0.10;;;0.10;99.90;;;;;;5055301;28;20063;-88
2021/01/01 05:33:42;;;;;;;1.50;1.45;;;0.00;99.90;;;;;;5050082;28;20069;-88
2021/01/01 05:36:09;;;;;;;0.75;0.75;;;-0.10;99.90;;;;;;5050057;28;20062;-88
2021/01/01 05:38:37;;;;;;;0.68;0.63;;;0.10;99.90;;;;;;5047204;28;20037;-88
2021/01/01 05:41:04;;;;;;;0.00;0.00;;;-0.10;99.90;;;;;;5049676;28;20045;-88
2021/01/01 05:43:30;;;;;;;3.63;3.45;;;0.00;99.90;;;;;;5049964;28;20041;-88
2021/01/01 05:46:09;;;;;;;1.92;1.48;;;-0.20;99.90;;;;;;5066613;28;20496;-88
2021/01/01 05:48:35;;;;;;;0.00;0.00;;;-0.30;99.90;;;;;;5049577;28;20048;-88
2021/01/01 05:51:07;;;;;;;2.38;2.20;;;-0.40;99.90;;;;;;5049689;28;20060;-88
2021/01/01 05:53:33;;;;;;;0.68;0.68;;;-0.40;99.90;;;;;;5049546;28;20041;-89
2021/01/01 05:56:09;;;;;;;5.88;5.55;;;-0.40;99.90;;;;;;5061430;28;20048;-88
2021/01/01 05:58:35;;;;;;;0.00;0.00;;;-0.40;99.90;;;;;;5069303;28;20037;-88
2021/01/01 06:01:03;;;;;;;3.03;2.05;;;-0.50;99.90;;;;;;5069349;28;20041;-89
2021/01/01 06:03:34;;;;;;;3.90;3.55;;;-0.50;99.90;;;;;;5069460;28;20036;-88
2021/01/01 06:06:06;;;;;;;1.00;1.00;;;-0.50;99.90;;;;;;5086234;28;20064;-88
2021/01/01 06:08:32;;;;;;;6.63;6.20;;;-0.60;99.90;;;;;;5069388;28;20051;-88
2021/01/01 06:11:03;;;;;;;1.88;1.15;;;-0.60;99.90;;;;;;5069060;28;20048;-87
2021/01/01 06:13:32;;;;;;;0.00;0.00;;;-0.60;99.90;;;;;;5085814;28;20036;-88
2021/01/01 06:15:59;;;;;;;0.00;0.00;;;-0.60;99.90;;;;;;5069119;28;20048;-88
2021/01/01 06:18:27;;;;;;;0.17;0.17;;;-0.60;99.90;;;;;;5085773;28;20068;-88
2021/01/01 06:21:01;;;;;;;0.28;0.28;;;-0.50;99.90;;;;;;5086112;28;20048;-88
2021/01/01 06:23:38;;;;;;;0.00;0.00;;;-0.50;99.90;;;;;;5085715;28;20043;-88
2021/01/01 06:26:08;;;;;;;1.45;1.45;;;-0.50;99.90;;;;;;5069125;28;20112;-88
2021/01/01 06:28:42;;;;;;;0.17;0.17;;;-0.40;99.90;;;;;;5085367;28;20040;-88
2021/01/01 06:31:10;;;;;;;0.00;0.00;;;-0.60;99.90;;;;;;5071610;28;20505;-89
2021/01/01 06:33:36;;;;;;;0.00;0.00;;;-0.60;99.90;;;;;;5048924;28;20037;-88
2021/01/01 06:36:02;;;;;;;0.00;0.00;;;-0.70;99.90;;;;;;5049038;28;20056;-88
2021/01/01 06:38:39;;;;;;;0.00;0.00;;;-0.60;99.90;;;;;;5048804;28;20518;-88
2021/01/01 06:41:12;;;;;;;0.00;0.00;;;-0.60;99.90;;;;;;5048314;28;20419;-88
2021/01/01 06:43:52;;;;;;;0.45;0.45;;;-0.70;99.90;;;;;;5048488;28;20036;-88
2021/01/01 06:46:47;;;;;;;0.00;0.00;;;-0.80;99.90;;;;;;5032501;28;20108;-88
2021/01/01 06:49:33;;;;;;;0.00;0.00;;;-0.80;99.90;;;;;;5035960;28;20048;-88
2021/01/01 06:52:16;;;;;;;0.00;0.00;;;-0.80;99.90;;;;;;5048516;28;20107;-88
2021/01/01 06:55:01;;;;;;;0.00;0.00;;;-0.80;99.90;;;;;;5051515;28;20033;-88
2021/01/01 06:57:29;;;;;;;0.00;0.00;;;-0.70;99.90;;;;;;5070365;28;20048;-88
2021/01/01 07:00:01;;;;;;;0.00;0.00;;;-0.80;99.90;;;;;;5070340;28;20041;-88
2021/01/01 07:02:28;;;;;;;0.00;0.00;;;-0.80;99.90;;;;;;5068600;28;20424;-88
2021/01/01 07:04:55;;;;;;;0.00;0.00;;;-0.70;99.90;;;;;;5068270;28;20032;-87
2021/01/01 07:07:36;;;;;;;0.00;0.00;;;-0.70;99.90;;;;;;5068579;28;20041;-88
2021/01/01 07:10:05;;;;;;;0.00;0.00;;;-0.60;99.90;;;;;;5067959;28;20064;-88
2021/01/01 07:12:31;;;;;;;3.13;1.75;;;-0.70;99.90;;;;;;5068453;28;20055;-88
2021/01/01 07:14:57;;;;;;;0.10;0.10;;;-0.70;99.90;;;;;;5085167;28;20041;-87
2021/01/01 07:17:23;;;;;;;0.00;0.00;;;-0.70;99.90;;;;;;5068307;28;20049;-88
2021/01/01 07:19:49;;;;;;;0.40;0.38;;;-0.80;99.90;;;;;;5068199;28;20043;-88
2021/01/01 07:22:15;;;;;;;0.00;0.00;;;-0.70;99.90;;;;;;5068088;28;20067;-88
2021/01/01 07:24:44;;;;;;;0.00;0.00;;;-0.80;99.90;;;;;;5084667;28;20029;-88
2021/01/01 07:27:09;;;;;;;0.00;0.00;;;-0.70;99.90;;;;;;5068256;28;20041;-89
2021/01/01 07:29:35;;;;;;;0.00;0.00;;;-0.70;99.90;;;;;;5066955;28;20033;-88
2021/01/01 07:32:01;;;;;;;0.00;0.00;;;-0.60;99.90;;;;;;5031881;28;20064;-87
2021/01/01 07:34:27;;;;;;;0.00;0.00;;;-0.50;99.90;;;;;;5047936;28;20037;-87
2021/01/01 07:36:53;;;;;;;0.00;0.00;;;-0.50;99.90;;;;;;5048145;28;20037;-88
2021/01/01 07:39:26;;;;;;;0.00;0.00;;;-0.50;99.90;;;;;;5047846;28;20041;-88
2021/01/01 07:42:03;;;;;;;0.20;0.20;;;-0.40;99.90;;;;;;5048311;28;20045;-88
2021/01/01 07:44:28;;;;;;;0.00;0.00;;;-0.40;99.90;;;;;;5047946;28;20043;-88
2021/01/01 07:46:54;;;;;;;0.00;0.00;;;-0.30;99.90;;;;;;5048045;28;20112;-87
2021/01/01 07:49:20;;;;;;;0.00;0.00;;;-0.30;99.90;;;;;;5047780;28;20068;-88
2021/01/01 07:51:45;;;;;;;0.00;0.00;;;-0.20;99.90;;;;;;5048097;28;20049;-88
2021/01/01 07:54:44;;;;;;;0.00;0.00;;;-0.20;99.90;;;;;;5050493;28;20036;-87
2021/01/01 07:57:10;;;;;;;2.08;2.00;;;-0.20;99.90;;;;;;4991216;28;20054;-87
2021/01/01 07:59:35;;;;;;;0.00;0.00;;;-0.10;99.90;;;;;;4990804;28;20046;-89
2021/01/01 08:02:01;;;;;;;0.00;0.00;;;0.00;99.90;;;;;;4974746;28;20042;-87
2021/01/01 08:04:29;;;;;;;0.30;0.30;;;0.00;99.90;;;;;;4974708;28;20050;-88
2021/01/01 08:06:55;;;;;;;0.00;0.00;;;0.00;99.90;;;;;;4974729;28;20052;-88
2021/01/01 08:09:21;;;;;;;0.00;0.00;;;0.10;99.90;;;;;;4977945;28;20069;-88
2021/01/01 08:11:47;;;;;;;0.00;0.00;;;0.10;99.90;;;;;;4994148;28;20057;-88
2021/01/01 08:14:18;;;;;;;5.80;5.38;;;0.20;99.90;;;;;;4993776;28;20046;-88
2021/01/01 08:16:44;;;;;;;0.00;0.00;;;0.20;99.90;;;;;;4994009;28;20057;-88
2021/01/01 08:19:09;;;;;;;0.00;0.00;;;0.20;99.90;;;;;;5009907;28;20045;-89
2021/01/01 08:21:39;;;;;;;6.07;5.72;;;0.30;99.90;;;;;;4993917;28;20109;-92
2021/01/01 08:24:09;;;;;;;0.00;0.00;;;0.40;99.90;;;;;;4993540;28;20037;-87
2021/01/01 08:26:37;;;;;;;0.00;0.00;;;0.30;99.90;;;;;;5010425;28;20497;-87
2021/01/01 08:29:10;;;;;;;0.00;0.00;;;0.30;99.90;;;;;;5026443;28;20141;-87
2021/01/01 08:31:36;;;;;;;0.00;0.00;;;0.40;99.90;;;;;;4997041;28;20173;-87
2021/01/01 08:34:03;;;;;;;2.63;2.53;;;0.40;99.90;;;;;;5027300;28;20053;-88
2021/01/01 08:36:33;;;;;;;0.00;0.00;;;0.50;99.90;;;;;;5031517;28;20037;-87
2021/01/01 08:39:25;;;;;;;;;;;0.50;99.90;;;;;;5034550;28;20040;-87
2021/01/01 08:41:51;;;;;;;0.00;0.00;;;0.50;99.90;;;;;;5048303;28;19956;-86
2021/01/01 08:44:17;;;;;;;1.17;1.08;;;0.50;99.90;;;;;;5050118;28;20040;-87
2021/01/01 08:46:43;;;;;;;0.00;0.00;;;0.60;99.90;;;;;;5033382;28;20120;-87
2021/01/01 08:49:15;;;;;;;1.55;1.23;;;0.60;99.90;;;;;;5050106;28;20045;-87
2021/01/01 08:51:41;;;;;;;6.72;5.30;;;0.70;99.90;;;;;;5033105;28;20053;-88
2021/01/01 08:54:27;;;;;;;0.00;0.00;;;0.80;99.90;;;;;;5033631;28;20064;-85
2021/01/01 08:57:00;;;;;;;0.00;0.00;;;0.80;99.90;;;;;;5011509;28;20049;-87
2021/01/01 08:59:27;;;;;;;0.00;0.00;;;0.80;99.90;;;;;;5029078;28;20538;-86
2021/01/01 09:01:53;;;;;;;0.00;0.00;;;0.80;99.90;;;;;;5012382;28;20112;-86
2021/01/01 09:04:23;;;;;;;2.15;2.08;;;0.90;99.90;;;;;;5012349;28;20046;-87
2021/01/01 09:06:59;;;;;;;0.00;0.00;;;0.90;99.90;;;;;;5028789;28;20041;-87
2021/01/01 09:09:33;;;;;;;0.00;0.00;;;0.90;99.90;;;;;;5028970;28;20041;-86
2021/01/01 09:12:12;;;;;;;4.50;4.22;;;1.00;99.90;;;;;;5012465;28;20053;-86
2021/01/01 09:14:46;;;;;;;0.00;0.00;;;1.10;99.90;;;;;;5012449;28;20072;-87
2021/01/01 09:17:12;;;;;;;14.50;13.32;;;1.10;99.90;;;;;;5045177;28;20068;-87
2021/01/01 09:19:38;;;;;;;0.00;0.00;;;1.20;99.90;;;;;;5012442;28;20030;-87
2021/01/01 09:22:19;;;;;;;0.00;0.00;;;1.20;99.90;;;;;;5012038;28;20608;-88
2021/01/01 09:24:46;;;;;;;0.00;0.00;;;1.30;99.90;;;;;;5012323;28;20041;-88
2021/01/01 09:27:13;;;;;;;0.00;0.00;;;1.40;99.90;;;;;;5012110;28;20067;-87
2021/01/01 09:29:39;;;;;;;0.00;0.00;;;1.40;99.90;;;;;;5027000;28;20081;-87
2021/01/01 09:32:07;;;;;;;0.00;0.00;;;1.50;99.90;;;;;;5008857;28;20072;-87
2021/01/01 09:34:33;;;;;;;0.00;0.00;;;1.60;99.90;;;;;;5067618;28;20135;-87
2021/01/01 09:37:06;;;;;;;0.00;0.00;;;1.60;99.90;;;;;;5049099;28;20052;-87
2021/01/01 09:39:31;;;;;;;0.68;0.68;;;1.60;99.90;;;;;;5049228;28;20033;-88
2021/01/01 09:41:57;;;;;;;4.38;4.18;;;1.70;99.90;;;;;;5049003;28;20044;-88
2021/01/01 09:44:22;;;;;;;0.00;0.00;;;1.70;99.90;;;;;;5066074;28;20076;-87
2021/01/01 09:46:48;;;;;;;0.00;0.00;;;1.70;99.90;;;;;;5049093;28;20399;-88
2021/01/01 09:49:13;;;;;;;0.00;0.00;;;1.80;99.90;;;;;;5032742;28;20048;-88
2021/01/01 09:51:39;;;;;;;0.00;0.00;;;1.90;99.90;;;;;;5048749;28;20049;-88
2021/01/01 09:54:25;;;;;;;0.00;0.00;;;1.90;99.90;;;;;;5049161;28;20039;-87
2021/01/01 09:56:51;;;;;;;0.00;0.00;;;2.10;99.90;;;;;;4991288;28;20064;-87
2021/01/01 09:59:16;;;;;;;0.00;0.00;;;2.10;99.90;;;;;;5008407;28;20061;-88
2021/01/01 10:01:42;;;;;;;0.00;0.00;;;2.20;99.90;;;;;;5008109;28;20042;-87
2021/01/01 10:04:08;;;;;;;0.00;0.00;;;2.30;99.90;;;;;;5007985;28;20037;-88
2021/01/01 10:06:33;;;;;;;0.00;0.00;;;2.40;99.90;;;;;;5008427;28;20145;-88
2021/01/01 10:08:59;;;;;;;0.45;0.45;;;2.40;99.90;;;;;;5008300;28;20052;-88
2021/01/01 10:11:24;;;;;;;0.00;0.00;;;2.50;99.90;;;;;;5007915;28;20054;-88
2021/01/01 10:13:50;;;;;;;0.00;0.00;;;2.50;99.90;;;;;;5007753;28;20038;-87
2021/01/01 10:16:16;;;;;;;0.00;0.00;;;2.60;99.90;;;;;;5006909;28;20038;-87
2021/01/01 10:18:41;;;;;;;0.00;0.00;;;2.60;99.90;;;;;;5007684;28;20038;-88
2021/01/01 10:21:10;;;;;;;0.30;0.30;;;2.70;99.90;;;;;;5007890;28;20042;-88
2021/01/01 10:23:36;;;;;;;0.75;0.75;;;2.80;99.90;;;;;;5008059;28;20042;-87
2021/01/01 10:26:02;;;;;;;0.00;0.00;;;2.90;99.90;;;;;;5007590;28;20112;-87
2021/01/01 10:28:28;;;;;;;0.00;0.00;;;3.00;99.90;;;;;;5007700;28;20041;-86
2021/01/01 10:30:55;;;;;;;0.00;0.00;;;3.00;99.90;;;;;;4996076;28;20050;-87
2021/01/01 10:33:21;;;;;;;3.35;3.20;;;3.10;99.90;;;;;;5015285;28;20037;-88
2021/01/01 10:35:47;;;;;;;0.00;0.00;;;3.20;99.90;;;;;;5028322;28;20158;-87
2021/01/01 10:38:12;;;;;;;0.00;0.00;;;3.30;99.90;;;;;;5028521;28;20175;-87
2021/01/01 10:40:38;;;;;;;2.88;2.78;;;3.40;99.90;;;;;;5012051;28;20033;-87
2021/01/01 10:43:03;;;;;;;0.40;0.40;;;3.40;99.90;;;;;;5028146;28;20045;-88
2021/01/01 10:45:29;;;;;;;0.00;0.00;;;3.50;99.90;;;;;;5028342;28;20097;-87
2021/01/01 10:47:55;;;;;;;0.00;0.00;;;3.50;99.90;;;;;;5044464;28;20034;-88
2021/01/01 10:50:20;;;;;;;0.00;0.00;;;3.50;99.90;;;;;;5028099;28;20105;-88
2021/01/01 10:52:47;;;;;;;0.00;0.00;;;3.50;99.90;;;;;;5027981;28;20088;-89
2021/01/01 10:55:12;;;;;;;0.00;0.00;;;3.60;99.90;;;;;;5039142;28;20115;-88
2021/01/01 10:57:38;;;;;;;0.00;0.00;;;3.60;99.90;;;;;;5050846;28;20485;-88
2021/01/01 11:00:06;;;;;;;0.00;0.00;;;3.60;99.90;;;;;;5067906;28;20036;-88
2021/01/01 11:02:32;;;;;;;0.00;0.00;;;3.60;99.90;;;;;;5050826;28;20542;-87
2021/01/01 11:04:57;;;;;;;0.00;0.00;;;3.70;99.90;;;;;;5051107;28;20040;-88
2021/01/01 11:07:23;;;;;;;0.00;0.00;;;3.80;99.90;;;;;;5067676;28;20040;-88
2021/01/01 11:09:48;;;;;;;0.00;0.00;;;3.80;99.90;;;;;;5051077;28;20127;-87
2021/01/01 11:12:14;;;;;;;0.00;0.00;;;3.90;99.90;;;;;;5051151;28;20043;-88
2021/01/01 12:21:43;;;;;;;0.00;0.00;;;4.60;99.90;;;;;;5056440;28;20040;-87
2021/01/01 12:26:34;;;;;;;0.00;0.00;;;4.70;99.90;;;;;;5070623;28;20098;-87
2021/01/01 12:29:00;;;;;;;0.00;0.00;;;4.70;99.90;;;;;;5070889;28;20097;-87
2021/01/01 12:31:26;;;;;;;0.00;0.00;;;4.70;99.90;;;;;;5054059;28;20060;-88
2021/01/01 12:33:52;;;;;;;0.40;0.40;;;4.70;99.90;;;;;;5034018;28;20037;-88
2021/01/01 12:36:18;;;;;;;0.20;0.20;;;4.70;99.90;;;;;;5032107;28;20047;-88
2021/01/01 12:38:43;;;;;;;0.00;0.00;;;4.80;99.90;;;;;;5049065;28;20037;-88
2021/01/01 12:41:09;;;;;;;0.00;0.00;;;4.80;99.90;;;;;;5051255;28;20045;-88
2021/01/01 12:43:46;;;;;;;0.00;0.00;;;4.80;99.90;;;;;;5034375;28;20037;-88
2021/01/01 12:46:13;;;;;;;0.00;0.00;;;4.80;99.90;;;;;;5051213;28;20045;-88
2021/01/01 12:48:38;;;;;;;0.00;0.00;;;4.90;99.90;;;;;;5034490;28;20044;-88
2021/01/01 12:51:04;;;;;;;0.65;0.65;;;4.90;99.90;;;;;;5067142;28;20049;-87
2021/01/01 12:53:33;;;;;;;0.00;0.00;;;5.00;99.90;;;;;;5050973;28;20037;-88
2021/01/01 12:55:58;;;;;;;0.00;0.00;;;5.00;99.90;;;;;;5046156;28;20059;-88
2021/01/01 12:58:24;;;;;;;0.00;0.00;;;5.00;99.90;;;;;;5070782;28;20036;-88
2021/01/01 13:00:49;;;;;;;0.00;0.00;;;5.00;99.90;;;;;;5087261;28;20064;-88
2021/01/01 13:03:20;;;;;;;0.00;0.00;;;5.00;99.90;;;;;;5075802;28;20041;-88
2021/01/01 13:05:46;;;;;;;0.00;0.00;;;5.00;99.90;;;;;;5049646;28;20041;-88
2021/01/01 13:08:11;;;;;;;0.00;0.00;;;5.00;99.90;;;;;;5049933;28;20097;-87
2021/01/01 13:10:37;;;;;;;0.00;0.00;;;5.10;99.90;;;;;;5066378;28;20049;-88
2021/01/01 13:13:02;;;;;;;0.00;0.00;;;5.10;99.90;;;;;;5049527;28;20185;-88
2021/01/01 13:15:29;;;;;;;0.00;0.00;;;5.10;99.90;;;;;;5066300;28;20036;-88
2021/01/01 13:17:55;;;;;;;0.00;0.00;;;5.10;99.90;;;;;;5049556;28;20048;-88
2021/01/01 13:20:20;;;;;;;0.00;0.00;;;5.00;99.90;;;;;;5032588;28;20041;-88
2021/01/01 13:22:46;;;;;;;1.88;0.93;;;5.00;99.90;;;;;;5033477;28;20120;-88
2021/01/01 13:25:15;;;;;;;0.00;0.00;;;4.90;99.90;;;;;;5032963;28;20444;-88
2021/01/01 13:27:42;;;;;;;0.00;0.00;;;4.80;99.90;;;;;;5049177;28;20047;-88
2021/01/01 13:30:08;;;;;;;0.00;0.00;;;4.80;99.90;;;;;;5027188;28;20053;-88
2021/01/01 13:32:34;;;;;;;0.00;0.00;;;4.70;99.90;;;;;;5046015;28;20041;-88
2021/01/01 13:35:02;;;;;;;0.22;0.22;;;4.80;99.90;;;;;;5012771;28;20038;-88
2021/01/01 13:37:30;;;;;;;0.10;0.08;;;4.80;99.90;;;;;;5029269;28;20076;-88
2021/01/01 13:39:56;;;;;;;0.00;0.00;;;4.90;99.90;;;;;;5046842;28;20498;-88
2021/01/01 13:42:21;;;;;;;0.80;0.80;;;5.00;99.90;;;;;;5029075;28;20060;-88
2021/01/01 13:44:47;;;;;;;0.00;0.00;;;5.00;99.90;;;;;;5029197;28;20033;-88
2021/01/01 13:47:12;;;;;;;0.00;0.00;;;4.90;99.90;;;;;;5013156;28;20045;-88
2021/01/01 13:49:38;;;;;;;0.00;0.00;;;4.80;99.90;;;;;;5029123;28;20044;-88
2021/01/01 13:52:04;;;;;;;0.00;0.00;;;4.70;99.90;;;;;;5045530;28;20108;-89
2021/01/01 13:54:30;;;;;;;0.65;0.65;;;4.60;99.90;;;;;;5045504;28;20037;-89
2021/01/01 13:56:56;;;;;;;0.00;0.00;;;4.50;99.90;;;;;;5068485;28;20048;-89
2021/01/01 13:59:22;;;;;;;1.65;0.00;;;4.50;99.90;;;;;;5085593;28;20044;-89
2021/01/01 14:01:47;;;;;;;0.00;0.00;;;4.40;99.90;;;;;;5086647;28;20046;-90
2021/01/01 14:04:14;;;;;;;0.00;0.00;;;4.40;99.90;;;;;;5068483;28;20055;-89
2021/01/01 14:06:40;;;;;;;0.00;0.00;;;4.40;99.90;;;;;;5068776;28;20496;-88
2021/01/01 14:09:05;;;;;;;0.00;0.00;;;4.40;99.90;;;;;;5085562;28;20055;-88